sensor_id;sensor_type;location;lat;lon;timestamp;P1;durP1;ratioP1;P2;durP2;ratioP2
59054;SDS011;44845;51.444;7.460;2022-12-11T00:01:23;36.33;;;16.60;;
59054;SDS011;44845;51.444;7.460;2022-12-11T00:03:49;38.13;;;17.55;;
59054;SDS011;44845;51.444;7.460;2022-12-11T00:06:15;36.15;;;17.45;;
59054;SDS011;44845;51.444;7.460;2022-12-11T00:08:42;39.63;;;17.45;;
59054;SDS011;44845;51.444;7.460;2022-12-11T00:11:08;34.58;;;17.45;;
59054;SDS011;44845;51.444;7.460;2022-12-11T00:13:36;36.08;;;17.15;;
59054;SDS011;44845;51.444;7.460;2022-12-11T00:16:02;40.83;;;17.45;;
59054;SDS011;44845;51.444;7.460;2022-12-11T00:18:27;37.47;;;16.92;;
59054;SDS011;44845;51.444;7.460;2022-12-11T00:20:52;36.25;;;16.75;;
59054;SDS011;44845;51.444;7.460;2022-12-11T00:23:18;37.08;;;17.30;;
59054;SDS011;44845;51.444;7.460;2022-12-11T00:25:44;34.30;;;16.20;;
59054;SDS011;44845;51.444;7.460;2022-12-11T00:28:14;33.97;;;15.40;;
59054;SDS011;44845;51.444;7.460;2022-12-11T00:30:42;32.90;;;16.65;;
59054;SDS011;44845;51.444;7.460;2022-12-11T00:33:11;30.08;;;15.10;;
59054;SDS011;44845;51.444;7.460;2022-12-11T00:35:38;35.60;;;16.15;;
59054;SDS011;44845;51.444;7.460;2022-12-11T00:38:05;34.03;;;15.25;;
59054;SDS011;44845;51.444;7.460;2022-12-11T00:40:32;31.08;;;14.30;;
59054;SDS011;44845;51.444;7.460;2022-12-11T00:43:01;30.35;;;15.00;;
59054;SDS011;44845;51.444;7.460;2022-12-11T00:45:27;29.48;;;14.00;;
59054;SDS011;44845;51.444;7.460;2022-12-11T00:47:52;33.63;;;15.77;;
59054;SDS011;44845;51.444;7.460;2022-12-11T00:50:17;36.35;;;15.57;;
59054;SDS011;44845;51.444;7.460;2022-12-11T00:52:43;34.92;;;14.55;;
59054;SDS011;44845;51.444;7.460;2022-12-11T00:55:08;30.15;;;14.40;;
59054;SDS011;44845;51.444;7.460;2022-12-11T00:57:33;29.02;;;14.07;;
59054;SDS011;44845;51.444;7.460;2022-12-11T00:59:59;34.90;;;14.75;;
59054;SDS011;44845;51.444;7.460;2022-12-11T01:02:24;34.25;;;14.80;;
59054;SDS011;44845;51.444;7.460;2022-12-11T01:04:49;33.97;;;15.50;;
59054;SDS011;44845;51.444;7.460;2022-12-11T01:07:15;36.92;;;15.50;;
59054;SDS011;44845;51.444;7.460;2022-12-11T01:09:40;30.98;;;14.07;;
59054;SDS011;44845;51.444;7.460;2022-12-11T01:12:24;36.83;;;14.83;;
59054;SDS011;44845;51.444;7.460;2022-12-11T01:14:52;38.17;;;15.63;;
59054;SDS011;44845;51.444;7.460;2022-12-11T01:17:17;38.10;;;15.77;;
59054;SDS011;44845;51.444;7.460;2022-12-11T01:19:43;33.55;;;14.60;;
59054;SDS011;44845;51.444;7.460;2022-12-11T01:22:08;35.85;;;15.55;;
59054;SDS011;44845;51.444;7.460;2022-12-11T01:24:35;37.38;;;15.60;;
59054;SDS011;44845;51.444;7.460;2022-12-11T01:27:00;35.67;;;15.43;;
59054;SDS011;44845;51.444;7.460;2022-12-11T01:29:26;35.47;;;15.90;;
59054;SDS011;44845;51.444;7.460;2022-12-11T01:31:51;36.95;;;16.08;;
59054;SDS011;44845;51.444;7.460;2022-12-11T01:34:17;35.63;;;15.25;;
59054;SDS011;44845;51.444;7.460;2022-12-11T01:36:42;41.63;;;16.98;;
59054;SDS011;44845;51.444;7.460;2022-12-11T01:39:07;41.33;;;17.33;;
59054;SDS011;44845;51.444;7.460;2022-12-11T01:41:33;44.15;;;17.63;;
59054;SDS011;44845;51.444;7.460;2022-12-11T01:44:00;38.97;;;16.77;;
59054;SDS011;44845;51.444;7.460;2022-12-11T01:46:28;33.88;;;14.50;;
59054;SDS011;44845;51.444;7.460;2022-12-11T01:48:55;42.28;;;17.10;;
59054;SDS011;44845;51.444;7.460;2022-12-11T01:51:22;40.70;;;16.63;;
59054;SDS011;44845;51.444;7.460;2022-12-11T01:53:50;35.78;;;14.73;;
59054;SDS011;44845;51.444;7.460;2022-12-11T01:56:24;38.05;;;14.50;;
59054;SDS011;44845;51.444;7.460;2022-12-11T01:58:52;37.63;;;15.52;;
59054;SDS011;44845;51.444;7.460;2022-12-11T02:01:31;39.50;;;17.00;;
59054;SDS011;44845;51.444;7.460;2022-12-11T02:03:58;38.25;;;16.17;;
59054;SDS011;44845;51.444;7.460;2022-12-11T02:06:31;38.67;;;15.57;;
59054;SDS011;44845;51.444;7.460;2022-12-11T02:09:05;36.58;;;15.75;;
59054;SDS011;44845;51.444;7.460;2022-12-11T02:11:59;35.30;;;15.57;;
59054;SDS011;44845;51.444;7.460;2022-12-11T02:14:38;38.67;;;16.30;;
59054;SDS011;44845;51.444;7.460;2022-12-11T02:17:18;37.35;;;15.80;;
59054;SDS011;44845;51.444;7.460;2022-12-11T02:22:59;39.47;;;14.82;;
59054;SDS011;44845;51.444;7.460;2022-12-11T02:29:00;41.70;;;15.52;;
59054;SDS011;44845;51.444;7.460;2022-12-11T02:31:40;40.97;;;15.55;;
59054;SDS011;44845;51.444;7.460;2022-12-11T02:37:00;44.63;;;16.75;;
59054;SDS011;44845;51.444;7.460;2022-12-11T02:39:30;48.85;;;18.15;;
59054;SDS011;44845;51.444;7.460;2022-12-11T02:41:57;44.83;;;17.58;;
59054;SDS011;44845;51.444;7.460;2022-12-11T02:44:24;45.28;;;16.45;;
59054;SDS011;44845;51.444;7.460;2022-12-11T02:46:53;41.70;;;17.70;;
59054;SDS011;44845;51.444;7.460;2022-12-11T02:49:19;42.83;;;16.25;;
59054;SDS011;44845;51.444;7.460;2022-12-11T02:51:46;47.35;;;16.52;;
59054;SDS011;44845;51.444;7.460;2022-12-11T02:54:25;44.47;;;16.70;;
59054;SDS011;44845;51.444;7.460;2022-12-11T02:56:57;40.90;;;14.98;;
59054;SDS011;44845;51.444;7.460;2022-12-11T02:59:30;42.75;;;16.40;;
59054;SDS011;44845;51.444;7.460;2022-12-11T03:01:59;51.70;;;18.13;;
59054;SDS011;44845;51.444;7.460;2022-12-11T03:04:26;46.45;;;17.52;;
59054;SDS011;44845;51.444;7.460;2022-12-11T03:06:53;43.60;;;16.27;;
59054;SDS011;44845;51.444;7.460;2022-12-11T03:09:24;57.63;;;19.20;;
59054;SDS011;44845;51.444;7.460;2022-12-11T03:11:49;52.47;;;18.77;;
59054;SDS011;44845;51.444;7.460;2022-12-11T03:14:16;46.63;;;18.05;;
59054;SDS011;44845;51.444;7.460;2022-12-11T03:16:45;53.20;;;19.05;;
59054;SDS011;44845;51.444;7.460;2022-12-11T03:19:38;52.65;;;18.63;;
59054;SDS011;44845;51.444;7.460;2022-12-11T03:22:08;48.30;;;17.73;;
59054;SDS011;44845;51.444;7.460;2022-12-11T03:27:02;48.83;;;18.63;;
59054;SDS011;44845;51.444;7.460;2022-12-11T03:29:35;45.17;;;17.10;;
59054;SDS011;44845;51.444;7.460;2022-12-11T03:32:12;48.17;;;17.57;;
59054;SDS011;44845;51.444;7.460;2022-12-11T03:34:44;52.50;;;17.27;;
59054;SDS011;44845;51.444;7.460;2022-12-11T03:37:15;56.10;;;19.35;;
59054;SDS011;44845;51.444;7.460;2022-12-11T03:39:43;53.83;;;19.90;;
59054;SDS011;44845;51.444;7.460;2022-12-11T03:44:43;48.53;;;17.48;;
59054;SDS011;44845;51.444;7.460;2022-12-11T03:47:11;57.75;;;18.63;;
59054;SDS011;44845;51.444;7.460;2022-12-11T03:49:41;63.08;;;20.52;;
59054;SDS011;44845;51.444;7.460;2022-12-11T03:52:09;51.97;;;18.95;;
59054;SDS011;44845;51.444;7.460;2022-12-11T03:54:37;55.70;;;18.23;;
59054;SDS011;44845;51.444;7.460;2022-12-11T03:57:04;55.45;;;20.83;;
59054;SDS011;44845;51.444;7.460;2022-12-11T03:59:32;58.55;;;20.80;;
59054;SDS011;44845;51.444;7.460;2022-12-11T04:01:57;55.55;;;21.23;;
59054;SDS011;44845;51.444;7.460;2022-12-11T04:04:23;59.42;;;19.40;;
59054;SDS011;44845;51.444;7.460;2022-12-11T04:06:48;56.80;;;20.35;;
59054;SDS011;44845;51.444;7.460;2022-12-11T04:09:14;52.40;;;20.30;;
59054;SDS011;44845;51.444;7.460;2022-12-11T04:11:39;59.72;;;20.95;;
59054;SDS011;44845;51.444;7.460;2022-12-11T04:14:07;55.80;;;20.75;;
59054;SDS011;44845;51.444;7.460;2022-12-11T04:16:53;60.45;;;20.42;;
59054;SDS011;44845;51.444;7.460;2022-12-11T04:19:19;57.58;;;21.33;;
59054;SDS011;44845;51.444;7.460;2022-12-11T04:22:04;53.00;;;20.08;;
59054;SDS011;44845;51.444;7.460;2022-12-11T04:24:48;55.45;;;20.85;;
59054;SDS011;44845;51.444;7.460;2022-12-11T04:27:14;52.33;;;19.58;;
59054;SDS011;44845;51.444;7.460;2022-12-11T04:29:59;63.05;;;21.10;;
59054;SDS011;44845;51.444;7.460;2022-12-11T04:32:25;54.13;;;20.15;;
59054;SDS011;44845;51.444;7.460;2022-12-11T04:34:50;56.63;;;19.95;;
59054;SDS011;44845;51.444;7.460;2022-12-11T04:37:15;56.53;;;19.77;;
59054;SDS011;44845;51.444;7.460;2022-12-11T04:39:41;48.40;;;19.70;;
59054;SDS011;44845;51.444;7.460;2022-12-11T04:42:06;44.17;;;17.88;;
59054;SDS011;44845;51.444;7.460;2022-12-11T04:44:32;52.78;;;20.02;;
59054;SDS011;44845;51.444;7.460;2022-12-11T04:46:58;50.78;;;20.48;;
59054;SDS011;44845;51.444;7.460;2022-12-11T04:49:23;50.50;;;18.95;;
59054;SDS011;44845;51.444;7.460;2022-12-11T04:51:48;48.58;;;18.08;;
59054;SDS011;44845;51.444;7.460;2022-12-11T04:54:14;46.97;;;18.05;;
59054;SDS011;44845;51.444;7.460;2022-12-11T04:56:39;45.70;;;18.25;;
59054;SDS011;44845;51.444;7.460;2022-12-11T04:59:04;47.88;;;18.38;;
59054;SDS011;44845;51.444;7.460;2022-12-11T05:01:30;44.75;;;18.35;;
59054;SDS011;44845;51.444;7.460;2022-12-11T05:03:55;44.90;;;17.33;;
59054;SDS011;44845;51.444;7.460;2022-12-11T05:06:23;47.25;;;18.52;;
59054;SDS011;44845;51.444;7.460;2022-12-11T05:08:48;50.25;;;17.50;;
59054;SDS011;44845;51.444;7.460;2022-12-11T05:11:14;46.30;;;17.92;;
59054;SDS011;44845;51.444;7.460;2022-12-11T05:13:40;52.53;;;18.42;;
59054;SDS011;44845;51.444;7.460;2022-12-11T05:16:07;49.10;;;18.35;;
59054;SDS011;44845;51.444;7.460;2022-12-11T05:18:33;45.38;;;17.08;;
59054;SDS011;44845;51.444;7.460;2022-12-11T05:21:00;43.00;;;16.30;;
59054;SDS011;44845;51.444;7.460;2022-12-11T05:23:28;43.55;;;16.83;;
59054;SDS011;44845;51.444;7.460;2022-12-11T05:25:54;45.92;;;17.50;;
59054;SDS011;44845;51.444;7.460;2022-12-11T05:28:22;43.90;;;17.20;;
59054;SDS011;44845;51.444;7.460;2022-12-11T05:30:53;36.95;;;15.02;;
59054;SDS011;44845;51.444;7.460;2022-12-11T05:33:20;47.65;;;17.90;;
59054;SDS011;44845;51.444;7.460;2022-12-11T05:35:45;45.22;;;16.10;;
59054;SDS011;44845;51.444;7.460;2022-12-11T05:38:12;39.55;;;14.63;;
59054;SDS011;44845;51.444;7.460;2022-12-11T05:40:37;43.50;;;16.70;;
59054;SDS011;44845;51.444;7.460;2022-12-11T05:43:02;38.28;;;15.68;;
59054;SDS011;44845;51.444;7.460;2022-12-11T05:45:28;43.28;;;15.95;;
59054;SDS011;44845;51.444;7.460;2022-12-11T05:47:53;41.38;;;16.33;;
59054;SDS011;44845;51.444;7.460;2022-12-11T05:50:18;43.05;;;17.23;;
59054;SDS011;44845;51.444;7.460;2022-12-11T05:52:44;46.08;;;17.67;;
59054;SDS011;44845;51.444;7.460;2022-12-11T05:55:09;42.00;;;15.90;;
59054;SDS011;44845;51.444;7.460;2022-12-11T05:57:34;45.42;;;17.85;;
59054;SDS011;44845;51.444;7.460;2022-12-11T06:00:00;39.08;;;15.93;;
59054;SDS011;44845;51.444;7.460;2022-12-11T06:02:25;45.97;;;17.30;;
59054;SDS011;44845;51.444;7.460;2022-12-11T06:04:50;43.80;;;16.00;;
59054;SDS011;44845;51.444;7.460;2022-12-11T06:07:16;42.33;;;16.50;;
59054;SDS011;44845;51.444;7.460;2022-12-11T06:09:41;40.20;;;16.63;;
59054;SDS011;44845;51.444;7.460;2022-12-11T06:12:06;43.92;;;16.20;;
59054;SDS011;44845;51.444;7.460;2022-12-11T06:14:32;39.33;;;16.45;;
59054;SDS011;44845;51.444;7.460;2022-12-11T06:16:57;43.55;;;16.67;;
59054;SDS011;44845;51.444;7.460;2022-12-11T06:19:23;37.08;;;15.70;;
59054;SDS011;44845;51.444;7.460;2022-12-11T06:21:48;41.67;;;15.95;;
59054;SDS011;44845;51.444;7.460;2022-12-11T06:24:13;43.58;;;16.55;;
59054;SDS011;44845;51.444;7.460;2022-12-11T06:26:39;43.15;;;16.20;;
59054;SDS011;44845;51.444;7.460;2022-12-11T06:29:04;42.63;;;16.70;;
59054;SDS011;44845;51.444;7.460;2022-12-11T06:31:30;42.03;;;15.35;;
59054;SDS011;44845;51.444;7.460;2022-12-11T06:33:55;34.00;;;14.38;;
59054;SDS011;44845;51.444;7.460;2022-12-11T06:36:22;42.00;;;15.88;;
59054;SDS011;44845;51.444;7.460;2022-12-11T06:38:48;35.53;;;14.80;;
59054;SDS011;44845;51.444;7.460;2022-12-11T06:41:14;35.33;;;14.20;;
59054;SDS011;44845;51.444;7.460;2022-12-11T06:43:39;33.75;;;14.23;;
59054;SDS011;44845;51.444;7.460;2022-12-11T06:46:07;30.65;;;13.40;;
59054;SDS011;44845;51.444;7.460;2022-12-11T06:48:37;27.48;;;12.38;;
59054;SDS011;44845;51.444;7.460;2022-12-11T06:51:06;35.10;;;14.05;;
59054;SDS011;44845;51.444;7.460;2022-12-11T06:53:33;33.22;;;13.32;;
59054;SDS011;44845;51.444;7.460;2022-12-11T06:56:05;32.78;;;14.25;;
59054;SDS011;44845;51.444;7.460;2022-12-11T06:58:33;29.98;;;14.15;;
59054;SDS011;44845;51.444;7.460;2022-12-11T07:00:59;28.17;;;12.48;;
59054;SDS011;44845;51.444;7.460;2022-12-11T07:03:25;32.28;;;11.23;;
59054;SDS011;44845;51.444;7.460;2022-12-11T07:05:51;27.10;;;11.45;;
59054;SDS011;44845;51.444;7.460;2022-12-11T07:08:16;24.98;;;11.40;;
59054;SDS011;44845;51.444;7.460;2022-12-11T07:10:42;26.08;;;12.63;;
59054;SDS011;44845;51.444;7.460;2022-12-11T07:13:07;29.00;;;12.90;;
59054;SDS011;44845;51.444;7.460;2022-12-11T07:15:35;25.00;;;11.73;;
59054;SDS011;44845;51.444;7.460;2022-12-11T07:18:01;28.15;;;12.63;;
59054;SDS011;44845;51.444;7.460;2022-12-11T07:20:26;27.40;;;12.13;;
59054;SDS011;44845;51.444;7.460;2022-12-11T07:22:52;29.30;;;12.25;;
59054;SDS011;44845;51.444;7.460;2022-12-11T07:25:18;27.70;;;12.05;;
59054;SDS011;44845;51.444;7.460;2022-12-11T07:27:43;23.58;;;12.20;;
59054;SDS011;44845;51.444;7.460;2022-12-11T07:30:09;26.80;;;11.27;;
59054;SDS011;44845;51.444;7.460;2022-12-11T07:32:35;22.63;;;10.93;;
59054;SDS011;44845;51.444;7.460;2022-12-11T07:35:00;24.42;;;10.50;;
59054;SDS011;44845;51.444;7.460;2022-12-11T07:37:26;24.48;;;11.18;;
59054;SDS011;44845;51.444;7.460;2022-12-11T07:39:51;18.40;;;9.57;;
59054;SDS011;44845;51.444;7.460;2022-12-11T07:42:17;22.52;;;10.85;;
59054;SDS011;44845;51.444;7.460;2022-12-11T07:44:42;18.60;;;9.63;;
59054;SDS011;44845;51.444;7.460;2022-12-11T07:47:07;18.15;;;9.57;;
59054;SDS011;44845;51.444;7.460;2022-12-11T07:49:33;18.63;;;10.32;;
59054;SDS011;44845;51.444;7.460;2022-12-11T07:51:58;19.45;;;9.85;;
59054;SDS011;44845;51.444;7.460;2022-12-11T07:54:24;20.83;;;10.05;;
59054;SDS011;44845;51.444;7.460;2022-12-11T07:56:49;19.83;;;9.98;;
59054;SDS011;44845;51.444;7.460;2022-12-11T07:59:15;20.92;;;10.43;;
59054;SDS011;44845;51.444;7.460;2022-12-11T08:01:40;21.65;;;10.07;;
59054;SDS011;44845;51.444;7.460;2022-12-11T08:04:07;20.42;;;10.18;;
59054;SDS011;44845;51.444;7.460;2022-12-11T08:06:35;23.13;;;10.80;;
59054;SDS011;44845;51.444;7.460;2022-12-11T08:09:03;19.10;;;10.27;;
59054;SDS011;44845;51.444;7.460;2022-12-11T08:11:30;22.45;;;11.25;;
59054;SDS011;44845;51.444;7.460;2022-12-11T08:13:56;23.67;;;10.95;;
59054;SDS011;44845;51.444;7.460;2022-12-11T08:16:23;18.65;;;10.43;;
59054;SDS011;44845;51.444;7.460;2022-12-11T08:18:49;25.02;;;11.85;;
59054;SDS011;44845;51.444;7.460;2022-12-11T08:21:16;30.60;;;14.15;;
59054;SDS011;44845;51.444;7.460;2022-12-11T08:23:43;21.48;;;11.77;;
59054;SDS011;44845;51.444;7.460;2022-12-11T08:26:13;22.15;;;11.70;;
59054;SDS011;44845;51.444;7.460;2022-12-11T08:28:41;18.67;;;9.80;;
59054;SDS011;44845;51.444;7.460;2022-12-11T08:31:06;18.63;;;9.45;;
59054;SDS011;44845;51.444;7.460;2022-12-11T08:33:33;19.00;;;10.13;;
59054;SDS011;44845;51.444;7.460;2022-12-11T08:36:04;19.58;;;10.13;;
59054;SDS011;44845;51.444;7.460;2022-12-11T08:38:31;20.80;;;10.32;;
59054;SDS011;44845;51.444;7.460;2022-12-11T08:40:56;17.60;;;10.23;;
59054;SDS011;44845;51.444;7.460;2022-12-11T08:43:22;20.67;;;10.77;;
59054;SDS011;44845;51.444;7.460;2022-12-11T08:45:47;19.63;;;10.70;;
59054;SDS011;44845;51.444;7.460;2022-12-11T08:48:13;21.80;;;10.80;;
59054;SDS011;44845;51.444;7.460;2022-12-11T08:50:38;20.88;;;10.60;;
59054;SDS011;44845;51.444;7.460;2022-12-11T08:53:04;19.70;;;10.25;;
59054;SDS011;44845;51.444;7.460;2022-12-11T08:55:30;20.38;;;10.07;;
59054;SDS011;44845;51.444;7.460;2022-12-11T08:57:56;16.90;;;10.20;;
59054;SDS011;44845;51.444;7.460;2022-12-11T09:00:21;18.13;;;10.20;;
59054;SDS011;44845;51.444;7.460;2022-12-11T09:02:47;20.63;;;10.00;;
59054;SDS011;44845;51.444;7.460;2022-12-11T09:05:12;17.30;;;9.68;;
59054;SDS011;44845;51.444;7.460;2022-12-11T09:07:37;15.75;;;8.32;;
59054;SDS011;44845;51.444;7.460;2022-12-11T09:10:04;14.23;;;8.30;;
59054;SDS011;44845;51.444;7.460;2022-12-11T09:12:31;13.63;;;7.90;;
59054;SDS011;44845;51.444;7.460;2022-12-11T09:14:57;17.85;;;8.73;;
59054;SDS011;44845;51.444;7.460;2022-12-11T09:17:22;14.85;;;7.43;;
59054;SDS011;44845;51.444;7.460;2022-12-11T09:19:47;15.73;;;8.07;;
59054;SDS011;44845;51.444;7.460;2022-12-11T09:22:13;18.67;;;8.50;;
59054;SDS011;44845;51.444;7.460;2022-12-11T09:24:38;14.73;;;7.53;;
59054;SDS011;44845;51.444;7.460;2022-12-11T09:27:04;15.18;;;8.48;;
59054;SDS011;44845;51.444;7.460;2022-12-11T09:29:30;12.88;;;7.63;;
59054;SDS011;44845;51.444;7.460;2022-12-11T09:31:56;12.68;;;7.32;;
59054;SDS011;44845;51.444;7.460;2022-12-11T09:34:21;13.68;;;7.00;;
59054;SDS011;44845;51.444;7.460;2022-12-11T09:36:47;13.57;;;6.65;;
59054;SDS011;44845;51.444;7.460;2022-12-11T09:39:12;12.30;;;6.72;;
59054;SDS011;44845;51.444;7.460;2022-12-11T09:44:51;16.17;;;8.93;;
59054;SDS011;44845;51.444;7.460;2022-12-11T09:49:49;15.75;;;7.00;;
59054;SDS011;44845;51.444;7.460;2022-12-11T09:52:33;13.23;;;7.28;;
59054;SDS011;44845;51.444;7.460;2022-12-11T09:55:03;12.80;;;7.05;;
59054;SDS011;44845;51.444;7.460;2022-12-11T10:05:16;15.68;;;8.73;;
59054;SDS011;44845;51.444;7.460;2022-12-11T10:07:51;16.80;;;8.23;;
59054;SDS011;44845;51.444;7.460;2022-12-11T10:15:47;35.95;;;16.00;;
59054;SDS011;44845;51.444;7.460;2022-12-11T10:18:22;38.05;;;15.40;;
59054;SDS011;44845;51.444;7.460;2022-12-11T10:20:50;19.25;;;9.50;;
59054;SDS011;44845;51.444;7.460;2022-12-11T10:23:39;16.02;;;8.07;;
59054;SDS011;44845;51.444;7.460;2022-12-11T10:26:09;14.77;;;7.53;;
59054;SDS011;44845;51.444;7.460;2022-12-11T10:28:39;14.05;;;8.00;;
59054;SDS011;44845;51.444;7.460;2022-12-11T10:36:30;16.13;;;7.57;;
59054;SDS011;44845;51.444;7.460;2022-12-11T10:38:59;13.75;;;6.90;;
59054;SDS011;44845;51.444;7.460;2022-12-11T10:44:17;12.73;;;6.72;;
59054;SDS011;44845;51.444;7.460;2022-12-11T10:46:45;12.15;;;6.82;;
59054;SDS011;44845;51.444;7.460;2022-12-11T10:49:25;12.70;;;7.10;;
59054;SDS011;44845;51.444;7.460;2022-12-11T10:51:53;12.55;;;6.25;;
59054;SDS011;44845;51.444;7.460;2022-12-11T10:57:02;13.27;;;7.03;;
59054;SDS011;44845;51.444;7.460;2022-12-11T11:04:45;14.80;;;7.55;;
59054;SDS011;44845;51.444;7.460;2022-12-11T11:07:12;15.10;;;7.80;;
59054;SDS011;44845;51.444;7.460;2022-12-11T11:09:41;16.50;;;8.27;;
59054;SDS011;44845;51.444;7.460;2022-12-11T11:12:18;13.85;;;7.25;;
59054;SDS011;44845;51.444;7.460;2022-12-11T11:14:45;13.32;;;6.65;;
59054;SDS011;44845;51.444;7.460;2022-12-11T11:17:14;13.43;;;6.85;;
59054;SDS011;44845;51.444;7.460;2022-12-11T11:19:43;18.25;;;9.75;;
59054;SDS011;44845;51.444;7.460;2022-12-11T11:22:11;23.45;;;11.90;;
59054;SDS011;44845;51.444;7.460;2022-12-11T11:24:41;24.70;;;8.40;;
59054;SDS011;44845;51.444;7.460;2022-12-11T11:27:27;13.00;;;7.22;;
59054;SDS011;44845;51.444;7.460;2022-12-11T11:29:57;13.32;;;7.15;;
59054;SDS011;44845;51.444;7.460;2022-12-11T11:37:44;13.55;;;6.60;;
59054;SDS011;44845;51.444;7.460;2022-12-11T11:40:19;11.63;;;6.70;;
59054;SDS011;44845;51.444;7.460;2022-12-11T11:42:53;12.60;;;7.03;;
59054;SDS011;44845;51.444;7.460;2022-12-11T11:45:24;15.03;;;7.97;;
59054;SDS011;44845;51.444;7.460;2022-12-11T11:50:43;13.30;;;7.32;;
59054;SDS011;44845;51.444;7.460;2022-12-11T11:55:57;12.85;;;7.25;;
59054;SDS011;44845;51.444;7.460;2022-12-11T12:01:20;16.35;;;8.25;;
59054;SDS011;44845;51.444;7.460;2022-12-11T12:03:46;13.95;;;7.82;;
59054;SDS011;44845;51.444;7.460;2022-12-11T12:06:18;14.95;;;8.00;;
59054;SDS011;44845;51.444;7.460;2022-12-11T12:12:37;15.60;;;7.80;;
59054;SDS011;44845;51.444;7.460;2022-12-11T12:14:54;16.10;;;8.13;;
59054;SDS011;44845;51.444;7.460;2022-12-11T12:17:41;15.23;;;8.13;;
59054;SDS011;44845;51.444;7.460;2022-12-11T12:25:54;14.73;;;8.55;;
59054;SDS011;44845;51.444;7.460;2022-12-11T12:28:38;17.50;;;9.32;;
59054;SDS011;44845;51.444;7.460;2022-12-11T12:31:22;17.17;;;9.35;;
59054;SDS011;44845;51.444;7.460;2022-12-11T12:37:16;17.27;;;9.80;;
59054;SDS011;44845;51.444;7.460;2022-12-11T12:48:53;20.15;;;10.00;;
59054;SDS011;44845;51.444;7.460;2022-12-11T12:51:20;16.60;;;9.45;;
59054;SDS011;44845;51.444;7.460;2022-12-11T12:53:48;16.08;;;8.68;;
59054;SDS011;44845;51.444;7.460;2022-12-11T12:56:18;19.42;;;9.50;;
59054;SDS011;44845;51.444;7.460;2022-12-11T12:58:44;19.50;;;10.13;;
59054;SDS011;44845;51.444;7.460;2022-12-11T13:06:35;18.88;;;10.23;;
59054;SDS011;44845;51.444;7.460;2022-12-11T13:11:45;19.85;;;10.27;;
59054;SDS011;44845;51.444;7.460;2022-12-11T13:16:43;18.27;;;9.57;;
59054;SDS011;44845;51.444;7.460;2022-12-11T13:19:26;18.17;;;9.45;;
59054;SDS011;44845;51.444;7.460;2022-12-11T13:21:56;21.77;;;9.80;;
59054;SDS011;44845;51.444;7.460;2022-12-11T13:24:25;15.65;;;8.40;;
59054;SDS011;44845;51.444;7.460;2022-12-11T13:26:51;16.42;;;9.32;;
59054;SDS011;44845;51.444;7.460;2022-12-11T13:29:27;16.30;;;8.93;;
59054;SDS011;44845;51.444;7.460;2022-12-11T13:32:00;16.80;;;8.90;;
59054;SDS011;44845;51.444;7.460;2022-12-11T13:34:50;19.45;;;9.43;;
59054;SDS011;44845;51.444;7.460;2022-12-11T13:37:21;18.52;;;9.05;;
59054;SDS011;44845;51.444;7.460;2022-12-11T13:42:33;19.60;;;8.68;;
59054;SDS011;44845;51.444;7.460;2022-12-11T13:45:02;14.88;;;8.00;;
59054;SDS011;44845;51.444;7.460;2022-12-11T13:47:29;16.70;;;8.65;;
59054;SDS011;44845;51.444;7.460;2022-12-11T13:50:01;16.95;;;8.25;;
59054;SDS011;44845;51.444;7.460;2022-12-11T13:52:37;14.48;;;7.97;;
59054;SDS011;44845;51.444;7.460;2022-12-11T13:55:11;17.67;;;9.20;;
59054;SDS011;44845;51.444;7.460;2022-12-11T13:57:45;14.48;;;8.23;;
59054;SDS011;44845;51.444;7.460;2022-12-11T14:00:21;15.45;;;9.35;;
59054;SDS011;44845;51.444;7.460;2022-12-11T14:05:23;15.75;;;8.60;;
59054;SDS011;44845;51.444;7.460;2022-12-11T14:07:49;16.40;;;9.27;;
59054;SDS011;44845;51.444;7.460;2022-12-11T14:10:18;18.92;;;8.77;;
59054;SDS011;44845;51.444;7.460;2022-12-11T14:13:02;17.58;;;9.82;;
59054;SDS011;44845;51.444;7.460;2022-12-11T14:15:30;33.13;;;13.63;;
59054;SDS011;44845;51.444;7.460;2022-12-11T14:17:57;35.25;;;15.30;;
59054;SDS011;44845;51.444;7.460;2022-12-11T14:20:28;22.50;;;10.88;;
59054;SDS011;44845;51.444;7.460;2022-12-11T14:23:15;20.58;;;10.10;;
59054;SDS011;44845;51.444;7.460;2022-12-11T14:25:56;18.88;;;9.63;;
59054;SDS011;44845;51.444;7.460;2022-12-11T14:28:23;22.13;;;10.18;;
59054;SDS011;44845;51.444;7.460;2022-12-11T14:30:53;23.73;;;10.15;;
59054;SDS011;44845;51.444;7.460;2022-12-11T14:33:22;23.67;;;10.50;;
59054;SDS011;44845;51.444;7.460;2022-12-11T14:35:55;25.30;;;10.45;;
59054;SDS011;44845;51.444;7.460;2022-12-11T14:38:28;22.45;;;10.57;;
59054;SDS011;44845;51.444;7.460;2022-12-11T14:41:04;18.20;;;9.73;;
59054;SDS011;44845;51.444;7.460;2022-12-11T14:43:41;16.52;;;9.13;;
59054;SDS011;44845;51.444;7.460;2022-12-11T14:46:12;20.65;;;10.30;;
59054;SDS011;44845;51.444;7.460;2022-12-11T14:48:51;21.83;;;9.43;;
59054;SDS011;44845;51.444;7.460;2022-12-11T14:51:19;15.88;;;9.57;;
59054;SDS011;44845;51.444;7.460;2022-12-11T14:53:45;18.08;;;9.73;;
59054;SDS011;44845;51.444;7.460;2022-12-11T14:56:15;18.35;;;9.77;;
59054;SDS011;44845;51.444;7.460;2022-12-11T14:58:46;19.58;;;9.55;;
59054;SDS011;44845;51.444;7.460;2022-12-11T15:01:28;18.70;;;9.60;;
59054;SDS011;44845;51.444;7.460;2022-12-11T15:06:43;19.55;;;10.45;;
59054;SDS011;44845;51.444;7.460;2022-12-11T15:12:33;21.10;;;11.43;;
59054;SDS011;44845;51.444;7.460;2022-12-11T15:14:53;21.95;;;11.95;;
59054;SDS011;44845;51.444;7.460;2022-12-11T15:17:21;18.67;;;9.90;;
59054;SDS011;44845;51.444;7.460;2022-12-11T15:19:48;17.48;;;9.93;;
59054;SDS011;44845;51.444;7.460;2022-12-11T15:22:17;18.23;;;10.40;;
59054;SDS011;44845;51.444;7.460;2022-12-11T15:24:45;20.55;;;10.27;;
59054;SDS011;44845;51.444;7.460;2022-12-11T15:27:34;21.02;;;9.65;;
59054;SDS011;44845;51.444;7.460;2022-12-11T15:30:02;19.58;;;10.10;;
59054;SDS011;44845;51.444;7.460;2022-12-11T15:32:45;18.52;;;10.52;;
59054;SDS011;44845;51.444;7.460;2022-12-11T15:35:21;22.13;;;10.63;;
59054;SDS011;44845;51.444;7.460;2022-12-11T15:37:51;20.85;;;11.25;;
59054;SDS011;44845;51.444;7.460;2022-12-11T15:40:18;19.55;;;10.15;;
59054;SDS011;44845;51.444;7.460;2022-12-11T15:42:44;19.83;;;10.38;;
59054;SDS011;44845;51.444;7.460;2022-12-11T15:45:16;16.73;;;9.75;;
59054;SDS011;44845;51.444;7.460;2022-12-11T15:47:44;18.63;;;10.30;;
59054;SDS011;44845;51.444;7.460;2022-12-11T15:50:17;21.70;;;10.85;;
59054;SDS011;44845;51.444;7.460;2022-12-11T15:52:50;20.30;;;10.10;;
59054;SDS011;44845;51.444;7.460;2022-12-11T15:55:17;19.17;;;10.75;;
59054;SDS011;44845;51.444;7.460;2022-12-11T15:57:44;19.75;;;10.77;;
59054;SDS011;44845;51.444;7.460;2022-12-11T16:00:15;22.15;;;11.48;;
59054;SDS011;44845;51.444;7.460;2022-12-11T16:02:42;21.50;;;10.32;;
59054;SDS011;44845;51.444;7.460;2022-12-11T16:05:08;20.33;;;10.15;;
59054;SDS011;44845;51.444;7.460;2022-12-11T16:07:33;18.30;;;9.73;;
59054;SDS011;44845;51.444;7.460;2022-12-11T16:09:58;18.67;;;9.77;;
59054;SDS011;44845;51.444;7.460;2022-12-11T16:12:24;20.58;;;9.88;;
59054;SDS011;44845;51.444;7.460;2022-12-11T16:14:49;20.10;;;10.52;;
59054;SDS011;44845;51.444;7.460;2022-12-11T16:17:15;19.10;;;9.52;;
59054;SDS011;44845;51.444;7.460;2022-12-11T16:19:40;18.52;;;9.50;;
59054;SDS011;44845;51.444;7.460;2022-12-11T16:22:07;20.52;;;10.60;;